WMKN/TGG METAR and TAF weather

Enter ICAO airport designator
Station Type Date Time Source
WMKN METAR 2019/05/26 01:00 UTC NOAA

WMKN 260100Z 20003KT 140V260 9999 FEW020 BKN300 28/25 Q1009


Station Type Date Time Source
WMKN Decoded METAR 2019/05/26 01:00 UTC NOAA

Station name not available
May 25, 2019 - 09:00 PM EDT / 2019.05.26 0100 UTC
Wind: from the SSW (200 degrees) at 3 MPH (3 KT) (direction variable):0
Visibility: greater than 7 mile(s):0
Sky conditions: mostly cloudy
Temperature: 82 F (28 C)
Dew Point: 77 F (25 C)
Relative Humidity: 83%
Pressure (altimeter): 29.80 in. Hg (1009 hPa)
ob: WMKN 260100Z 20003KT 140V260 9999 FEW020 BKN300 28/25 Q1009
cycle: 1

Station Type Date Time Source
WMKN TAF 2019/05/25 18:00 UTC NOAA

TAF WMKN 251700Z 2518/2618 VRB03KT 9999 FEW022 SCT150 BKN300
BECMG 2610/2611 VRB03KT FEW017CB SCT018

Example: see airport list